Time;durP1;ratioP1;P1;durP2;ratioP2;P2;SDS_P1;SDS_P2;PMS_P1;PMS_P2;Temp;Humidity;BMP_temperature;BMP_pressure;BME280_temperature;BME280_humidity;BME280_pressure;Samples;Min_cycle;Max_cycle;Signal;HPM_P1;HPM_P2
2022/01/21 00:01:09;;;;;;;15.75;3.00;;;2.30;99.90;;;;;;4997305;28;20509;-79
2022/01/21 00:03:35;;;;;;;16.63;2.58;;;2.30;99.90;;;;;;4993768;28;20042;-80
2022/01/21 00:06:01;;;;;;;16.13;2.03;;;2.30;99.90;;;;;;4993826;28;20045;-79
2022/01/21 00:08:27;;;;;;;19.67;3.55;;;2.40;99.90;;;;;;5009970;28;20043;-79
2022/01/21 00:10:53;;;;;;;17.40;2.63;;;2.40;99.90;;;;;;5013188;28;20042;-79
2022/01/21 00:13:33;;;;;;;19.42;3.35;;;2.40;99.90;;;;;;4998954;28;20031;-79
2022/01/21 00:16:05;;;;;;;20.67;2.20;;;2.30;99.90;;;;;;5010887;28;20038;-79
2022/01/21 00:18:35;;;;;;;20.83;2.22;;;2.40;99.90;;;;;;4995387;28;20497;-79
2022/01/21 00:31:59;;;;;;;16.13;2.35;;;2.60;99.90;;;;;;4993669;28;20140;-79
2022/01/21 00:34:24;;;;;;;16.33;1.73;;;2.60;99.90;;;;;;4980961;28;20505;-78
2022/01/21 00:36:50;;;;;;;15.90;1.67;;;2.60;99.90;;;;;;5011722;28;20034;-79
2022/01/21 00:39:20;;;;;;;14.13;1.50;;;2.60;99.90;;;;;;4994167;28;20069;-79
2022/01/21 00:41:57;;;;;;;10.25;1.77;;;2.60;99.90;;;;;;4978137;28;20054;-79
2022/01/21 00:44:23;;;;;;;6.40;0.98;;;2.60;99.90;;;;;;4978434;28;20089;-79
2022/01/21 00:46:49;;;;;;;14.45;2.42;;;2.60;99.90;;;;;;5012877;28;20131;-79
2022/01/21 00:49:15;;;;;;;12.18;1.85;;;2.60;99.90;;;;;;4996506;28;20442;-79
2022/01/21 00:51:42;;;;;;;17.60;3.05;;;2.50;99.90;;;;;;4977345;28;20050;-79
2022/01/21 00:54:07;;;;;;;13.75;1.77;;;2.50;99.90;;;;;;4997573;28;20053;-79
2022/01/21 00:56:33;;;;;;;9.20;1.85;;;2.50;99.90;;;;;;5013570;28;20476;-79
2022/01/21 00:58:59;;;;;;;9.35;1.20;;;2.70;99.90;;;;;;4978337;28;20038;-79
2022/01/21 01:01:24;;;;;;;13.52;1.77;;;2.50;99.90;;;;;;4978499;28;20200;-79
2022/01/21 01:03:50;;;;;;;11.65;1.63;;;2.50;99.90;;;;;;5010176;28;20049;-79
2022/01/21 01:06:16;;;;;;;10.02;1.67;;;2.50;99.90;;;;;;4979788;28;20401;-79
2022/01/21 01:08:42;;;;;;;14.00;2.00;;;2.50;99.90;;;;;;5015768;28;20042;-79
2022/01/21 01:21:46;;;;;;;13.63;1.58;;;2.50;99.90;;;;;;5012130;28;20420;-79
2022/01/21 01:29:42;;;;;;;12.13;1.33;;;2.50;99.90;;;;;;4998233;28;20046;-79
2022/01/21 01:32:08;;;;;;;11.70;1.77;;;2.50;99.90;;;;;;5010384;28;20030;-79
2022/01/21 01:34:34;;;;;;;9.80;1.13;;;2.60;99.90;;;;;;4980689;28;20042;-79
2022/01/21 01:37:05;;;;;;;8.98;1.42;;;2.50;99.90;;;;;;5011670;28;20082;-78
2022/01/21 01:39:39;;;;;;;12.30;1.67;;;2.60;99.90;;;;;;4976409;28;20042;-79
2022/01/21 01:50:06;;;;;;;15.75;1.50;;;2.60;99.90;;;;;;4975739;28;20054;-78
2022/01/21 01:52:33;;;;;;;13.35;1.83;;;2.60;99.90;;;;;;4996607;28;20044;-78
2022/01/21 01:54:59;;;;;;;9.95;0.75;;;2.60;99.90;;;;;;4995478;28;20417;-79
2022/01/21 01:57:25;;;;;;;14.07;2.25;;;2.70;99.90;;;;;;4995105;28;20133;-78
2022/01/21 01:59:51;;;;;;;9.00;1.08;;;2.70;99.90;;;;;;5009563;28;20116;-78
2022/01/21 02:02:19;;;;;;;10.98;1.50;;;2.70;99.90;;;;;;5011356;28;20099;-78
2022/01/21 02:04:46;;;;;;;13.80;1.45;;;2.80;99.90;;;;;;4996477;28;20030;-78
2022/01/21 02:07:12;;;;;;;8.63;1.17;;;2.70;99.90;;;;;;4975641;28;20505;-78
2022/01/21 02:09:39;;;;;;;10.40;1.15;;;2.70;99.90;;;;;;4975740;28;20046;-79
2022/01/21 02:12:05;;;;;;;9.45;1.25;;;2.80;99.90;;;;;;5011857;28;20038;-78
2022/01/21 02:14:35;;;;;;;12.02;1.20;;;2.80;99.90;;;;;;4994264;28;20044;-79
2022/01/21 02:22:17;;;;;;;10.25;0.90;;;2.60;99.90;;;;;;5010980;28;20057;-79
2022/01/21 02:24:50;;;;;;;7.90;1.58;;;2.60;99.90;;;;;;5011875;28;20046;-79
2022/01/21 02:27:16;;;;;;;6.32;0.95;;;2.60;99.90;;;;;;4976307;28;20132;-79
2022/01/21 02:29:51;;;;;;;7.20;1.85;;;2.60;99.90;;;;;;4973718;28;20122;-79
2022/01/21 02:32:18;;;;;;;14.43;1.20;;;2.60;99.90;;;;;;4999639;28;20390;-79
2022/01/21 02:34:45;;;;;;;7.35;0.90;;;2.50;99.90;;;;;;5007328;28;20140;-79
2022/01/21 02:37:14;;;;;;;7.97;0.88;;;2.50;99.90;;;;;;4995768;28;20053;-79
2022/01/21 02:39:39;;;;;;;8.38;1.10;;;2.60;99.90;;;;;;5007697;28;20073;-78
2022/01/21 02:42:06;;;;;;;11.25;1.05;;;2.60;99.90;;;;;;5011243;28;20155;-78
2022/01/21 02:44:32;;;;;;;12.45;1.05;;;2.60;99.90;;;;;;4970987;28;20051;-79
2022/01/21 02:47:01;;;;;;;12.00;0.88;;;2.60;99.90;;;;;;4994353;28;20110;-78
2022/01/21 02:49:27;;;;;;;3.85;0.52;;;2.60;99.90;;;;;;5014296;28;20053;-78
2022/01/21 02:51:54;;;;;;;9.88;0.80;;;2.70;99.90;;;;;;4997432;28;20520;-79
2022/01/21 02:54:20;;;;;;;4.80;0.40;;;2.60;99.90;;;;;;4979871;28;20469;-79
2022/01/21 02:56:46;;;;;;;8.05;0.80;;;2.60;99.90;;;;;;5000365;28;20033;-78
2022/01/21 02:59:12;;;;;;;7.80;0.60;;;2.60;99.90;;;;;;5008906;28;20207;-79
2022/01/21 03:01:40;;;;;;;12.73;1.00;;;2.60;99.90;;;;;;4998880;28;20057;-79
2022/01/21 03:04:09;;;;;;;8.63;0.93;;;2.50;99.90;;;;;;4995813;28;20046;-79
2022/01/21 03:06:37;;;;;;;7.97;0.85;;;2.50;99.90;;;;;;4979657;28;20065;-79
2022/01/21 03:09:04;;;;;;;9.38;0.82;;;2.50;99.90;;;;;;4996810;28;20968;-79
2022/01/21 03:11:30;;;;;;;10.80;1.30;;;2.40;99.90;;;;;;5014676;28;20045;-79
2022/01/21 03:13:56;;;;;;;8.55;0.70;;;2.50;99.90;;;;;;5012721;28;20052;-79
2022/01/21 03:16:23;;;;;;;8.18;0.75;;;2.40;99.90;;;;;;4984179;28;20038;-78
2022/01/21 03:18:49;;;;;;;10.95;1.23;;;2.40;99.90;;;;;;4996778;28;20846;-78
2022/01/21 03:21:16;;;;;;;13.05;1.17;;;2.40;99.90;;;;;;4997607;28;20038;-78
2022/01/21 03:23:46;;;;;;;7.85;0.65;;;2.50;99.90;;;;;;5011898;28;20078;-78
2022/01/21 03:26:14;;;;;;;10.38;1.00;;;2.60;99.90;;;;;;4996181;28;20378;-78
2022/01/21 03:28:40;;;;;;;12.45;1.00;;;2.50;99.90;;;;;;4978888;28;20042;-78
2022/01/21 03:31:12;;;;;;;7.30;0.90;;;2.50;99.90;;;;;;5012729;28;20041;-78
2022/01/21 03:33:38;;;;;;;6.32;0.75;;;2.50;99.90;;;;;;5000243;28;20172;-78
2022/01/21 03:36:04;;;;;;;6.05;0.73;;;2.40;99.90;;;;;;4994605;28;20126;-78
2022/01/21 03:38:30;;;;;;;8.55;1.38;;;2.40;99.90;;;;;;4982167;28;20546;-79
2022/01/21 03:40:59;;;;;;;8.10;0.70;;;2.40;99.90;;;;;;5011285;28;20054;-78
2022/01/21 03:43:25;;;;;;;9.57;1.10;;;2.30;99.90;;;;;;4997004;28;20053;-79
2022/01/21 03:45:51;;;;;;;4.40;0.80;;;2.30;99.90;;;;;;4998723;28;20481;-79
2022/01/21 03:48:21;;;;;;;9.98;0.68;;;2.30;99.90;;;;;;5011861;28;20525;-79
2022/01/21 03:50:47;;;;;;;9.63;1.48;;;2.20;99.90;;;;;;4981640;28;20077;-79
2022/01/21 03:53:13;;;;;;;8.63;0.85;;;2.20;99.90;;;;;;4978978;28;20043;-79
2022/01/21 03:55:39;;;;;;;16.98;1.30;;;2.40;99.90;;;;;;4995508;28;20030;-79
2022/01/21 03:58:07;;;;;;;10.77;0.60;;;2.20;99.90;;;;;;4981970;28;20172;-79
2022/01/21 04:00:36;;;;;;;9.23;1.02;;;2.10;99.90;;;;;;4996194;28;20416;-79
2022/01/21 04:03:03;;;;;;;10.48;0.90;;;2.10;99.90;;;;;;5014868;28;20046;-79
2022/01/21 04:05:29;;;;;;;9.48;1.25;;;2.10;99.90;;;;;;5000210;28;20058;-79
2022/01/21 04:07:55;;;;;;;13.32;1.08;;;2.10;99.90;;;;;;5001319;28;20069;-79
2022/01/21 04:10:21;;;;;;;13.77;1.90;;;2.10;99.90;;;;;;4978170;28;20057;-79
2022/01/21 04:12:47;;;;;;;11.40;0.82;;;2.00;99.90;;;;;;5001986;28;20034;-79
2022/01/21 04:15:13;;;;;;;13.60;1.15;;;2.00;99.90;;;;;;4995737;28;20733;-79
2022/01/21 04:17:39;;;;;;;12.85;1.08;;;2.00;99.90;;;;;;4979939;28;20042;-79
2022/01/21 04:20:06;;;;;;;14.90;1.17;;;2.00;99.90;;;;;;4981943;28;20049;-79
2022/01/21 04:22:32;;;;;;;11.65;1.17;;;2.00;99.90;;;;;;5012695;28;20495;-79
2022/01/21 04:25:00;;;;;;;11.48;1.10;;;1.90;99.90;;;;;;5011847;28;20043;-80
2022/01/21 04:27:26;;;;;;;14.50;1.15;;;1.90;99.90;;;;;;4977614;28;20437;-79
2022/01/21 04:29:51;;;;;;;15.07;1.20;;;1.90;99.90;;;;;;4993562;28;20045;-79
2022/01/21 04:32:17;;;;;;;11.43;1.98;;;1.80;99.90;;;;;;4997565;28;20041;-79
2022/01/21 04:34:43;;;;;;;13.77;1.65;;;1.90;99.90;;;;;;5009360;28;20042;-79
2022/01/21 04:37:12;;;;;;;15.98;1.90;;;1.90;99.90;;;;;;5000772;28;20077;-79
2022/01/21 04:39:44;;;;;;;15.95;1.50;;;1.80;99.90;;;;;;5014409;28;20093;-79
2022/01/21 04:47:31;;;;;;;;;;;1.90;99.90;;;;;;5012633;28;20050;-78
2022/01/21 04:49:57;;;;;;;15.35;1.50;;;1.70;99.90;;;;;;4998061;28;19926;-79
2022/01/21 04:52:23;;;;;;;20.15;1.88;;;1.80;99.90;;;;;;4993514;28;20062;-79
2022/01/21 04:54:50;;;;;;;12.02;1.70;;;1.80;99.90;;;;;;5011880;28;20100;-78
2022/01/21 04:57:16;;;;;;;13.93;1.30;;;1.90;99.90;;;;;;4975982;28;20038;-77
2022/01/21 04:59:42;;;;;;;13.02;1.30;;;1.90;99.90;;;;;;5012542;28;21052;-78
2022/01/21 05:02:09;;;;;;;14.40;1.52;;;2.00;99.90;;;;;;4978276;28;20042;-79
2022/01/21 05:04:35;;;;;;;12.48;1.25;;;2.00;99.90;;;;;;4999206;28;20045;-78
2022/01/21 05:07:03;;;;;;;12.32;1.52;;;2.10;99.90;;;;;;4996344;28;20048;-78
2022/01/21 05:09:31;;;;;;;17.52;1.52;;;2.30;99.90;;;;;;5013688;28;20045;-78
2022/01/21 05:11:59;;;;;;;12.48;1.42;;;2.20;99.90;;;;;;4977373;28;20045;-78
2022/01/21 05:14:41;;;;;;;21.92;2.38;;;2.20;99.90;;;;;;4979347;28;20125;-78
2022/01/21 05:17:07;;;;;;;15.85;2.63;;;2.20;99.90;;;;;;4977332;28;20034;-78
2022/01/21 05:19:33;;;;;;;10.77;1.45;;;2.20;99.90;;;;;;4980898;28;20058;-78
2022/01/21 05:21:59;;;;;;;16.65;1.98;;;2.30;99.90;;;;;;4996827;28;20040;-78
2022/01/21 05:24:24;;;;;;;17.20;1.33;;;2.20;99.90;;;;;;5001364;28;20045;-78
2022/01/21 05:26:56;;;;;;;11.95;1.55;;;2.20;99.90;;;;;;5014670;28;20462;-78
2022/01/21 05:29:31;;;;;;;8.95;0.90;;;2.10;99.90;;;;;;4963409;28;20057;-78
2022/01/21 05:31:57;;;;;;;10.95;1.25;;;2.10;99.90;;;;;;4995388;28;20117;-78
2022/01/21 05:34:23;;;;;;;11.98;1.75;;;2.10;99.90;;;;;;5006983;28;20116;-78
2022/01/21 05:36:49;;;;;;;11.20;1.10;;;2.10;99.90;;;;;;5007220;28;20041;-78
2022/01/21 05:39:16;;;;;;;13.32;1.10;;;2.00;99.90;;;;;;4995866;28;20038;-78
2022/01/21 05:41:49;;;;;;;17.30;1.30;;;2.10;99.90;;;;;;4994662;28;20129;-78
2022/01/21 05:47:05;;;;;;;8.75;1.10;;;2.00;99.90;;;;;;4966651;28;20128;-78
2022/01/21 05:49:32;;;;;;;14.45;1.00;;;2.00;99.90;;;;;;5010390;28;20145;-78
2022/01/21 05:52:09;;;;;;;13.57;1.20;;;2.00;99.90;;;;;;4994166;28;20034;-78
2022/01/21 05:54:35;;;;;;;10.63;0.77;;;2.10;99.90;;;;;;4997692;28;20489;-78
2022/01/21 05:57:05;;;;;;;16.13;1.75;;;2.10;99.90;;;;;;4978147;28;20045;-77
2022/01/21 05:59:31;;;;;;;11.63;1.70;;;2.20;99.90;;;;;;4975242;28;20093;-78
2022/01/21 06:01:56;;;;;;;17.23;1.67;;;2.20;99.90;;;;;;4997538;28;20046;-78
2022/01/21 06:04:23;;;;;;;12.95;0.93;;;2.30;99.90;;;;;;4997910;28;20668;-78
2022/01/21 06:06:49;;;;;;;17.20;2.08;;;2.30;99.90;;;;;;5004350;28;20046;-78
2022/01/21 06:09:14;;;;;;;14.63;1.30;;;2.30;99.90;;;;;;5010450;28;20033;-78
2022/01/21 06:11:40;;;;;;;8.45;0.90;;;2.30;99.90;;;;;;5009486;28;20468;-78
2022/01/21 06:14:06;;;;;;;17.88;1.23;;;2.30;99.90;;;;;;5008119;28;20420;-78
2022/01/21 06:16:34;;;;;;;13.48;0.95;;;2.40;99.90;;;;;;5009215;28;20046;-78
2022/01/21 06:18:59;;;;;;;24.45;2.55;;;2.40;99.90;;;;;;5007270;28;20048;-78
2022/01/21 06:21:25;;;;;;;14.43;1.23;;;2.40;99.90;;;;;;5009276;28;20476;-77
2022/01/21 06:23:51;;;;;;;12.48;0.98;;;2.40;99.90;;;;;;5008286;28;20046;-77
2022/01/21 06:26:16;;;;;;;7.75;0.65;;;2.40;99.90;;;;;;4994015;28;20038;-78
2022/01/21 06:28:42;;;;;;;14.68;1.27;;;2.40;99.90;;;;;;4978857;28;20046;-78
2022/01/21 06:31:07;;;;;;;9.00;0.75;;;2.50;99.90;;;;;;4992493;28;20038;-77
2022/01/21 06:33:33;;;;;;;9.25;1.42;;;2.50;99.90;;;;;;5010868;28;20122;-78
2022/01/21 06:35:59;;;;;;;14.45;0.90;;;2.50;99.90;;;;;;4961942;28;20387;-78
2022/01/21 06:38:25;;;;;;;12.52;1.13;;;2.50;99.90;;;;;;4997472;28;20511;-78
2022/01/21 06:40:51;;;;;;;12.65;1.30;;;2.50;99.90;;;;;;4992910;28;20540;-78
2022/01/21 06:43:17;;;;;;;14.65;1.25;;;2.60;99.90;;;;;;5011542;28;20074;-78
2022/01/21 06:45:43;;;;;;;9.48;1.10;;;2.60;99.90;;;;;;4994314;28;20081;-78
2022/01/21 06:48:09;;;;;;;10.82;0.98;;;2.60;99.90;;;;;;4996930;28;20074;-78
2022/01/21 06:50:40;;;;;;;13.07;1.15;;;2.60;99.90;;;;;;4995162;28;20033;-78
2022/01/21 06:53:05;;;;;;;19.33;1.95;;;2.60;99.90;;;;;;4977675;28;20042;-78
2022/01/21 06:55:32;;;;;;;11.82;0.85;;;2.60;99.90;;;;;;5007918;28;20380;-78
2022/01/21 06:57:57;;;;;;;8.18;0.98;;;2.50;99.90;;;;;;4996885;28;20052;-78
2022/01/21 07:00:24;;;;;;;10.80;0.70;;;2.50;99.90;;;;;;4980343;28;20042;-79
2022/01/21 07:02:52;;;;;;;13.40;0.90;;;2.50;99.90;;;;;;4994926;28;20041;-79
2022/01/21 07:05:19;;;;;;;14.85;1.17;;;2.40;99.90;;;;;;4977981;28;20030;-79
2022/01/21 07:07:45;;;;;;;9.07;0.70;;;2.40;99.90;;;;;;4988610;28;20433;-79
2022/01/21 07:10:12;;;;;;;11.57;1.15;;;2.30;99.90;;;;;;4982252;28;20112;-79
2022/01/21 07:12:39;;;;;;;11.85;0.80;;;2.40;99.90;;;;;;4998103;28;20166;-78
2022/01/21 07:15:07;;;;;;;9.20;0.60;;;2.30;99.90;;;;;;5010318;28;20050;-79
2022/01/21 07:17:33;;;;;;;11.73;1.00;;;2.30;99.90;;;;;;4981509;28;20046;-78
2022/01/21 07:19:58;;;;;;;12.25;0.82;;;2.30;99.90;;;;;;4977044;28;20045;-78
2022/01/21 07:22:24;;;;;;;11.60;0.80;;;2.40;99.90;;;;;;4978059;28;20042;-79
2022/01/21 07:24:50;;;;;;;7.25;0.88;;;2.20;99.90;;;;;;4974217;28;20137;-79
2022/01/21 07:27:16;;;;;;;4.70;0.90;;;2.10;99.90;;;;;;5010642;28;20070;-78
2022/01/21 07:29:42;;;;;;;10.10;0.70;;;2.20;99.90;;;;;;4997879;28;20108;-78
2022/01/21 07:32:08;;;;;;;10.40;0.85;;;2.10;99.90;;;;;;4997759;28;20034;-78
2022/01/21 07:34:33;;;;;;;9.35;0.60;;;2.10;99.90;;;;;;4998448;28;20041;-80
2022/01/21 07:36:59;;;;;;;9.82;1.10;;;2.10;99.90;;;;;;5014956;28;20477;-79
2022/01/21 07:39:25;;;;;;;10.88;1.23;;;2.10;99.90;;;;;;4979750;28;20541;-79
2022/01/21 07:41:51;;;;;;;17.08;1.65;;;2.10;99.90;;;;;;4999636;28;20059;-80
2022/01/21 07:44:17;;;;;;;12.88;1.48;;;2.10;99.90;;;;;;4998746;28;20133;-80
2022/01/21 07:46:44;;;;;;;10.43;1.00;;;2.10;99.90;;;;;;5011075;28;20042;-79
2022/01/21 07:49:10;;;;;;;10.85;1.00;;;2.10;99.90;;;;;;4984452;28;20038;-79
2022/01/21 07:51:37;;;;;;;13.40;1.00;;;2.20;99.90;;;;;;4967612;28;20030;-80
2022/01/21 07:54:03;;;;;;;15.48;1.50;;;2.20;99.90;;;;;;4978227;28;20057;-80
2022/01/21 07:56:33;;;;;;;14.48;1.10;;;2.20;99.90;;;;;;4992217;28;20053;-80
2022/01/21 07:59:00;;;;;;;12.35;1.10;;;2.20;99.90;;;;;;4986145;28;20535;-78
2022/01/21 08:01:26;;;;;;;15.70;1.25;;;2.20;99.90;;;;;;4972755;28;20046;-78
2022/01/21 08:03:52;;;;;;;9.30;0.88;;;2.20;99.90;;;;;;4999384;28;20096;-78
2022/01/21 08:06:18;;;;;;;9.18;1.60;;;2.20;99.90;;;;;;4976389;28;20049;-78
2022/01/21 08:08:44;;;;;;;11.77;1.40;;;2.20;99.90;;;;;;5014595;28;20099;-78
2022/01/21 08:11:09;;;;;;;8.65;1.00;;;2.30;99.90;;;;;;5004023;28;20038;-78
2022/01/21 08:13:35;;;;;;;6.47;1.25;;;2.20;99.90;;;;;;5006300;28;20034;-78
2022/01/21 08:16:01;;;;;;;12.02;1.42;;;2.20;99.90;;;;;;5002373;28;20058;-78
2022/01/21 08:18:27;;;;;;;8.63;0.90;;;2.00;99.90;;;;;;4967273;28;20053;-78
2022/01/21 08:20:53;;;;;;;13.98;1.15;;;2.20;99.90;;;;;;4998155;28;20050;-78
2022/01/21 08:23:19;;;;;;;10.48;1.25;;;2.20;99.90;;;;;;4987509;28;20563;-78
2022/01/21 08:25:45;;;;;;;13.77;1.15;;;2.20;99.90;;;;;;4972940;28;20065;-78
2022/01/21 08:28:11;;;;;;;9.52;0.82;;;2.20;99.90;;;;;;4992190;28;20142;-78
2022/01/21 08:30:38;;;;;;;10.40;1.10;;;2.20;99.90;;;;;;4994074;28;20042;-78
2022/01/21 08:33:04;;;;;;;16.45;1.27;;;2.20;99.90;;;;;;4992945;28;20048;-78
2022/01/21 08:35:31;;;;;;;13.27;1.30;;;2.30;99.90;;;;;;4993649;28;20097;-78
2022/01/21 08:37:58;;;;;;;14.55;1.42;;;2.30;99.90;;;;;;4995141;28;20436;-78
2022/01/21 08:40:24;;;;;;;11.13;1.20;;;2.40;99.90;;;;;;4990334;28;20043;-78
2022/01/21 08:42:50;;;;;;;9.35;1.08;;;2.30;99.90;;;;;;4989860;28;20053;-78
2022/01/21 08:45:17;;;;;;;16.92;1.17;;;2.40;99.90;;;;;;4991574;28;20596;-78
2022/01/21 08:47:43;;;;;;;11.50;1.27;;;2.40;99.90;;;;;;4974963;28;20038;-78
2022/01/21 08:50:11;;;;;;;10.00;1.27;;;2.40;99.90;;;;;;5010238;28;20042;-78
2022/01/21 08:52:38;;;;;;;10.07;1.30;;;2.50;99.90;;;;;;5003433;28;20039;-79
2022/01/21 08:55:10;;;;;;;8.30;0.85;;;2.40;99.90;;;;;;4988467;28;20039;-79
2022/01/21 08:57:39;;;;;;;14.40;1.20;;;2.60;99.90;;;;;;4993698;28;20058;-78
2022/01/21 09:00:08;;;;;;;14.98;1.52;;;2.60;99.90;;;;;;4976663;28;20042;-78
2022/01/21 09:02:34;;;;;;;13.60;1.75;;;2.70;99.90;;;;;;4993968;28;20045;-79
2022/01/21 09:04:59;;;;;;;11.35;1.70;;;2.80;99.90;;;;;;4993110;28;20041;-78
2022/01/21 09:07:25;;;;;;;7.18;1.10;;;2.90;99.90;;;;;;4994486;28;20044;-79
2022/01/21 09:09:51;;;;;;;10.77;1.92;;;3.00;99.90;;;;;;4977689;28;20042;-78
2022/01/21 09:12:17;;;;;;;15.02;1.73;;;3.00;99.90;;;;;;4991862;28;20042;-78
2022/01/21 09:14:43;;;;;;;11.55;1.50;;;3.10;99.90;;;;;;5007396;28;20095;-78
2022/01/21 09:17:08;;;;;;;18.80;1.65;;;3.20;99.90;;;;;;4973845;28;20046;-77
2022/01/21 09:19:34;;;;;;;18.35;2.10;;;3.20;99.90;;;;;;5009229;28;20484;-78
2022/01/21 09:22:02;;;;;;;16.23;1.80;;;3.30;99.90;;;;;;5008351;28;20436;-77
2022/01/21 09:24:31;;;;;;;18.80;2.35;;;3.30;99.90;;;;;;4990930;28;20053;-78
2022/01/21 09:26:57;;;;;;;18.15;2.97;;;3.40;99.90;;;;;;4975343;28;20374;-78
2022/01/21 09:29:23;;;;;;;14.75;1.90;;;3.50;99.90;;;;;;4995499;28;20045;-78
2022/01/21 09:31:49;;;;;;;16.17;2.47;;;3.50;99.90;;;;;;4975226;28;20042;-77
2022/01/21 09:34:15;;;;;;;16.83;2.22;;;3.60;99.90;;;;;;4976565;28;20042;-78
2022/01/21 09:36:42;;;;;;;22.48;3.35;;;3.60;99.90;;;;;;4986434;28;20481;-78
2022/01/21 09:39:08;;;;;;;15.05;1.90;;;3.70;99.90;;;;;;4991068;28;20042;-78
2022/01/21 09:41:34;;;;;;;11.05;2.22;;;3.80;99.90;;;;;;4966111;28;20532;-78
2022/01/21 09:44:03;;;;;;;19.27;2.17;;;3.80;99.90;;;;;;4974337;28;20082;-78
2022/01/21 09:46:35;;;;;;;17.17;2.10;;;3.90;99.90;;;;;;5005447;28;20437;-78
2022/01/21 09:49:08;;;;;;;14.77;2.30;;;4.00;99.90;;;;;;4992370;28;20042;-78
2022/01/21 09:51:37;;;;;;;9.82;1.13;;;4.10;99.90;;;;;;4975701;28;20334;-78
2022/01/21 09:54:06;;;;;;;19.40;1.88;;;4.10;99.90;;;;;;4988709;28;20125;-78
2022/01/21 09:56:37;;;;;;;14.50;1.40;;;4.20;99.90;;;;;;4989231;28;20046;-78
2022/01/21 09:59:03;;;;;;;12.48;1.63;;;4.20;99.90;;;;;;4988407;28;20037;-78
2022/01/21 10:01:30;;;;;;;12.90;1.70;;;4.30;99.90;;;;;;4975736;28;20137;-78
2022/01/21 10:03:56;;;;;;;13.40;1.75;;;4.30;99.90;;;;;;4990330;28;20038;-78
2022/01/21 10:06:25;;;;;;;15.90;2.17;;;4.30;99.90;;;;;;4977689;28;20477;-78
2022/01/21 10:08:56;;;;;;;12.07;1.80;;;4.60;99.90;;;;;;4975069;28;20539;-78
2022/01/21 10:11:23;;;;;;;15.07;1.92;;;4.60;99.90;;;;;;4991236;28;20085;-79
2022/01/21 10:13:50;;;;;;;10.07;1.23;;;4.70;99.90;;;;;;5007679;28;20133;-79
2022/01/21 10:16:16;;;;;;;18.98;3.50;;;4.60;99.90;;;;;;4992497;28;20157;-78
2022/01/21 10:19:06;;;;;;;14.95;1.27;;;4.70;99.90;;;;;;4987917;28;20125;-78
2022/01/21 10:21:35;;;;;;;20.10;1.92;;;4.80;99.90;;;;;;4984940;28;20057;-79
2022/01/21 10:24:08;;;;;;;15.13;2.10;;;4.80;99.90;;;;;;4974147;28;20044;-79
2022/01/21 10:26:34;;;;;;;11.52;1.45;;;4.80;99.90;;;;;;5006940;28;20093;-79
2022/01/21 10:28:59;;;;;;;17.70;1.67;;;4.80;99.90;;;;;;4992045;28;20424;-79
2022/01/21 10:31:27;;;;;;;12.35;1.50;;;4.90;99.90;;;;;;5007622;28;20076;-79
2022/01/21 10:33:56;;;;;;;14.68;1.67;;;4.90;99.90;;;;;;4993363;28;20741;-79
2022/01/21 10:36:32;;;;;;;18.13;1.23;;;4.90;99.90;;;;;;5007924;28;20116;-79
2022/01/21 10:39:09;;;;;;;14.00;1.55;;;5.00;99.90;;;;;;5005012;28;20052;-79
2022/01/21 10:41:38;;;;;;;12.00;1.70;;;5.10;99.90;;;;;;4987954;28;20045;-79
2022/01/21 10:44:15;;;;;;;14.18;1.27;;;5.10;99.90;;;;;;4993168;28;20042;-79
2022/01/21 10:46:46;;;;;;;12.45;1.33;;;5.20;99.90;;;;;;4974885;28;21628;-78
2022/01/21 10:49:16;;;;;;;15.85;2.10;;;5.20;99.90;;;;;;4975098;28;20058;-79
2022/01/21 10:51:49;;;;;;;17.17;2.33;;;5.40;99.90;;;;;;5006575;28;20073;-79
2022/01/21 10:54:26;;;;;;;18.70;2.20;;;5.40;99.90;;;;;;4991417;28;20038;-79
2022/01/21 10:57:10;;;;;;;13.70;1.80;;;5.40;99.90;;;;;;4993357;28;20125;-79
2022/01/21 10:59:54;;;;;;;12.07;2.13;;;5.40;99.90;;;;;;4994589;28;20537;-79
2022/01/21 11:02:53;;;;;;;27.55;2.53;;;5.30;99.90;;;;;;4990688;28;20041;-79
2022/01/21 11:05:26;;;;;;;19.10;2.30;;;5.40;99.90;;;;;;4973099;28;20042;-79
2022/01/21 11:08:02;;;;;;;20.77;2.40;;;5.40;99.90;;;;;;4996867;28;20038;-79
2022/01/21 11:10:31;;;;;;;18.73;2.03;;;5.40;99.90;;;;;;4992713;28;20047;-79
2022/01/21 11:12:58;;;;;;;19.95;2.38;;;5.50;99.90;;;;;;4993154;28;20053;-79
2022/01/21 11:15:24;;;;;;;15.50;2.47;;;5.60;99.90;;;;;;4993654;28;20041;-79
2022/01/21 11:17:58;;;;;;;17.77;3.00;;;5.70;99.90;;;;;;4998895;28;20718;-79
2022/01/21 11:20:32;;;;;;;17.17;2.33;;;5.70;99.90;;;;;;5007976;28;20089;-79
2022/01/21 11:23:00;;;;;;;14.25;2.50;;;5.80;99.90;;;;;;4997023;28;20035;-79
2022/01/21 11:25:51;;;;;;;17.90;2.30;;;5.90;99.90;;;;;;4995467;28;20042;-80
2022/01/21 11:28:18;;;;;;;20.02;2.00;;;5.90;99.90;;;;;;4977244;28;20034;-79
2022/01/21 11:30:45;;;;;;;11.27;1.95;;;5.90;99.90;;;;;;5010168;28;20088;-79
2022/01/21 11:33:11;;;;;;;21.02;3.35;;;5.90;99.90;;;;;;4992574;28;20039;-80
2022/01/21 11:35:37;;;;;;;13.65;2.28;;;5.90;99.90;;;;;;5008925;28;20093;-80
2022/01/21 11:38:08;;;;;;;11.88;2.15;;;6.00;99.90;;;;;;4995123;28;20050;-80
2022/01/21 11:40:35;;;;;;;20.15;2.80;;;6.00;99.90;;;;;;4976212;28;20674;-79
2022/01/21 11:43:04;;;;;;;16.23;1.85;;;6.10;99.90;;;;;;5013480;28;21235;-79
2022/01/21 11:50:39;;;;;;;21.58;1.90;;;6.30;99.90;;;;;;4992319;28;20038;-80
2022/01/21 11:53:05;;;;;;;10.70;1.60;;;6.40;99.90;;;;;;4995848;28;20120;-79
2022/01/21 11:55:46;;;;;;;14.32;2.10;;;6.40;99.90;;;;;;4993984;28;20045;-79
2022/01/21 11:58:22;;;;;;;14.70;1.83;;;6.50;99.90;;;;;;5008885;28;20069;-79
2022/01/21 12:00:51;;;;;;;15.65;1.80;;;6.60;99.90;;;;;;4990030;28;20048;-80
2022/01/21 12:03:22;;;;;;;12.30;1.70;;;6.60;99.90;;;;;;4995566;28;20042;-80
2022/01/21 12:05:50;;;;;;;12.27;1.73;;;6.70;99.90;;;;;;5005396;28;20042;-80
2022/01/21 12:08:46;;;;;;;12.38;1.13;;;6.80;99.90;;;;;;4979563;28;20042;-79
2022/01/21 12:11:38;;;;;;;17.65;2.17;;;6.80;99.90;;;;;;5011081;28;20495;-79
2022/01/21 12:14:40;;;;;;;11.40;1.70;;;6.80;99.90;;;;;;5009583;28;20042;-80
2022/01/21 12:17:17;;;;;;;9.18;1.20;;;6.80;99.90;;;;;;4993314;28;20070;-80
2022/01/21 12:19:43;;;;;;;14.77;1.15;;;6.80;99.90;;;;;;4974331;28;20643;-79
2022/01/21 12:22:12;;;;;;;9.93;1.27;;;6.80;99.90;;;;;;4975115;28;20045;-79
2022/01/21 12:24:54;;;;;;;14.93;1.65;;;6.80;99.90;;;;;;4992253;28;20043;-80
2022/01/21 12:27:23;;;;;;;13.38;2.05;;;6.80;99.90;;;;;;5010189;28;20046;-79
2022/01/21 12:29:49;;;;;;;12.18;1.70;;;6.80;99.90;;;;;;4994490;28;20069;-79
2022/01/21 12:32:34;;;;;;;11.38;1.52;;;6.80;99.90;;;;;;4979226;28;20054;-80
2022/01/21 12:35:02;;;;;;;12.60;1.52;;;6.80;99.90;;;;;;4969579;28;20038;-80
2022/01/21 12:39:05;;;;;;;19.02;1.90;;;6.90;99.90;;;;;;5006183;28;20038;-80
2022/01/21 12:40:35;;;;;;;16.75;2.10;;;7.30;99.90;;;;;;4969456;28;20389;-80
2022/01/21 12:43:41;;;;;;;10.95;1.92;;;6.90;99.90;;;;;;4972523;28;20092;-80
2022/01/21 12:46:10;;;;;;;13.38;1.27;;;7.00;99.90;;;;;;4992732;28;20126;-80
2022/01/21 12:48:37;;;;;;;8.52;0.95;;;7.00;99.90;;;;;;4992093;28;20046;-80
2022/01/21 12:51:16;;;;;;;11.45;1.58;;;7.00;99.90;;;;;;5005293;28;20073;-80
2022/01/21 12:56:41;;;;;;;11.48;1.15;;;7.00;99.90;;;;;;5007780;28;20501;-80
2022/01/21 12:59:07;;;;;;;12.60;1.48;;;7.10;99.90;;;;;;4967499;28;20045;-80
2022/01/21 13:01:37;;;;;;;15.82;2.33;;;7.00;99.90;;;;;;4995616;28;20061;-77
2022/01/21 13:04:12;;;;;;;10.13;1.42;;;7.00;99.90;;;;;;4979071;28;20058;-78
2022/01/21 13:06:44;;;;;;;11.13;1.98;;;7.00;99.90;;;;;;4982498;28;20052;-78
2022/01/21 13:09:20;;;;;;;10.48;1.50;;;7.00;99.90;;;;;;5011726;28;20064;-78
2022/01/21 13:12:04;;;;;;;12.02;2.10;;;7.00;99.90;;;;;;4994661;28;20045;-78
2022/01/21 13:17:00;;;;;;;15.05;2.55;;;6.90;99.90;;;;;;4998751;28;20435;-78
2022/01/21 13:19:26;;;;;;;14.40;3.17;;;6.90;99.90;;;;;;5010040;28;20051;-78
2022/01/21 13:21:52;;;;;;;20.60;2.70;;;6.90;99.90;;;;;;4996932;28;20042;-78
2022/01/21 13:24:27;;;;;;;14.25;1.63;;;6.90;99.90;;;;;;4997386;28;20101;-78
2022/01/21 13:26:53;;;;;;;13.45;2.13;;;6.90;99.90;;;;;;4996112;28;20393;-78
2022/01/21 13:29:42;;;;;;;10.77;2.10;;;6.90;99.90;;;;;;5010157;28;20481;-78
2022/01/21 13:32:07;;;;;;;14.07;2.13;;;6.90;99.90;;;;;;5010069;28;20046;-78
2022/01/21 13:34:36;;;;;;;18.33;1.58;;;6.90;99.90;;;;;;4996731;28;20109;-77
2022/01/21 13:37:04;;;;;;;18.42;2.58;;;6.90;99.90;;;;;;4960948;28;20046;-78
2022/01/21 13:39:36;;;;;;;14.38;1.58;;;6.90;99.90;;;;;;4982454;28;20073;-81
2022/01/21 13:42:05;;;;;;;10.95;1.85;;;6.90;99.90;;;;;;4990210;28;20049;-80
2022/01/21 13:44:38;;;;;;;17.45;2.50;;;6.90;99.90;;;;;;4972434;28;20485;-80
2022/01/21 13:47:21;;;;;;;17.13;1.88;;;6.90;99.90;;;;;;4989444;28;20037;-80
2022/01/21 13:49:47;;;;;;;24.85;2.40;;;6.90;99.90;;;;;;4992611;28;20045;-80
2022/01/21 13:52:13;;;;;;;28.10;3.85;;;6.90;99.90;;;;;;4991024;28;20081;-80
2022/01/21 13:54:50;;;;;;;18.77;1.98;;;6.90;99.90;;;;;;4991301;28;20038;-80
2022/01/21 13:57:25;;;;;;;18.65;2.75;;;6.90;99.90;;;;;;4989138;28;20050;-79